Sacramento, CA

11:56 AM PDT on September 21, 2014 (GMT -0700)
Sacramento Executive | Change Station
CLOSE
Current Station
Airport
Location: Sacramento,
Elevation: 26 ft
Nearby Weather Stations

Elev 26 ft 38.51 °N, 121.50 °W | Updated 1 hour ago

Clear
Clear
73 °F
Feels Like 73 °F
N
9
Wind Variable Wind from SSW

Today
High -- | Low -- °F
--% Chance of Precip.
Yesterday
High -- | Low -- °F
Precip. -- in
6:52 AM 7:04 PM
Waning Crescent, 6% visible
Pressure 29.96 in
Visibility 10.0 miles
Clouds Clear
Dew Point 56 °F
Humidity 55%
Rainfall 0.00 in
Snow Depth 0 in , 0 in , 0 in
UV 6 out of 12
Pollen 5.20 out of 12
Ozone Good
PM2.5 Good
Flu Activity Not available.
METAR KSAC 211753Z 20008KT 10SM CLR 23/13 A2997 RMK AO2 SLP146 6//// T02280133 10233 20172 52016 PNO $

More Conditions Fewer Conditions

Pressure 29.96 in
Visibility 10.0 miles
Clouds Clear
Dew Point 56 °F
Humidity 55%
Rainfall 0.00 in
Snow Depth 0 in , 0 in , 0 in
UV 6 out of 12
Pollen 5.20 out of 12
Ozone Good
PM2.5 Good
Flu Activity Not available.
METAR KSAC 211753Z 20008KT 10SM CLR 23/13 A2997 RMK AO2 SLP146 6//// T02280133 10233 20172 52016 PNO $

More Conditions Fewer Conditions

10-Day Weather Forecast

Almanac

Astronomy

Sep. 21, 2014 Rise Set
Actual Time 6:52 AM PDT 7:04 PM PDT
Civil Twilight 6:26 AM PDT 7:30 PM PDT
Nautical Twilight 5:55 AM PDT 8:01 PM PDT
Astronomical Twilight 5:23 AM PDT 8:33 PM PDT
Moon 4:32 AM PDT 5:42 PM PDT
Length of Visible Light 13h 04m
Length of Day
12h 11m
Tomorrow will be 2m 30s shorter.
Waning Crescent, 6% of the Moon is Illuminated
Today
Waning Crescent
Sep 24
New
Oct 1
First Quarter
Oct 8
Full
Oct 15
Last Quarter

Today's Extremes

State Highs State Lows

Community

WunderPhotos

Upload Photos

1,755,211 photos uploaded!

WunderBlogs® & News

Nearby

Air Quality

  Air Quality AQ Index Pollutant
Yesterday Good
OZONE
Yesterday Good
PM10
Current Good
PM2.5
Current Good
OZONE
Sunday Good
OZONE
Monday Good
OZONE
Tuesday Moderate
OZONE
Wednesday Good
OZONE
Thursday Good
OZONE
Friday Good
OZONE

Snow Depth

Station Depth Elevation
Hagan's Meadow 0 in 8000 ft
Summit Meadow 0 in 9122 ft
Echo Peak 0 in 7800 ft
Burnside Lake 0 in 8139 ft
Fallen Leaf 0 in 6300 ft

Earthquake Activity

City Distance Mag. Time & Date
Cloverdale, California 77 miles 2.5 9:15 PM PDT
2014-09-20
Livermore, California 58 miles 2.6 3:37 AM PDT
2014-09-19
The Geysers, California 68 miles 2.5 11:29 PM PDT
2014-09-17
Minimum magnitude displayed is 2.5.

Coastal Water Temperatures

Place Temperature
San Francisco, CA 66.0 °F
Richmond, CA 66.9 °F
Port Chicago, CA 69.1 °F

Nearby Weather Stations